Borough Green, United Kingdom
Current Conditions -  °F | °C
As of 3:20 PM on Thursday 23 Oct 2014 (Local Time) from EGKB Reporting Station
Light Rain Light Rain  
Wind Chill: 13°   Ceiling: 700
Heat Index: 13°   Visibility: 4mi
Dew Point: 11°   Wind: 12mph
Humidity: 88%   Direction: 210°SSW
Pressure: 30.09"   Gusts: NA
Location:  51.29°N, 0.3°E
Report Text: EGKB 231420Z 21010KT 6000 -RA BKN007 13/11 Q1019
Loading
Personal Weather Stations






























Interactive Weather Map
Tropical Storm Tracking
New forecast layout! Learn more

10-Day Weather Forecast

Advertisements
Track Severe Weather on mobile